sensor_id;sensor_type;location;lat;lon;timestamp;P1;durP1;ratioP1;P2;durP2;ratioP2
4078;SDS011;2054;47.858;11.156;2022-11-20T03:47:40;4.13;;;2.72;;
4078;SDS011;2054;47.858;11.156;2022-11-20T03:50:08;4.57;;;3.30;;
4078;SDS011;2054;47.858;11.156;2022-11-20T03:52:37;5.90;;;3.25;;
4078;SDS011;2054;47.858;11.156;2022-11-20T03:55:04;4.10;;;3.10;;
4078;SDS011;2054;47.858;11.156;2022-11-20T03:57:32;6.13;;;3.03;;
4078;SDS011;2054;47.858;11.156;2022-11-20T03:59:59;4.55;;;2.97;;
4078;SDS011;2054;47.858;11.156;2022-11-20T04:02:26;4.28;;;3.20;;
4078;SDS011;2054;47.858;11.156;2022-11-20T04:04:54;4.50;;;3.08;;
4078;SDS011;2054;47.858;11.156;2022-11-20T04:07:22;5.82;;;3.22;;
4078;SDS011;2054;47.858;11.156;2022-11-20T04:09:49;3.67;;;3.20;;
4078;SDS011;2054;47.858;11.156;2022-11-20T04:12:16;5.00;;;3.47;;
4078;SDS011;2054;47.858;11.156;2022-11-20T04:14:43;3.65;;;3.10;;
4078;SDS011;2054;47.858;11.156;2022-11-20T04:17:10;4.50;;;3.25;;
4078;SDS011;2054;47.858;11.156;2022-11-20T04:19:37;4.05;;;3.05;;
4078;SDS011;2054;47.858;11.156;2022-11-20T04:22:06;4.30;;;3.17;;
4078;SDS011;2054;47.858;11.156;2022-11-20T04:24:33;4.68;;;2.92;;
4078;SDS011;2054;47.858;11.156;2022-11-20T04:27:00;4.68;;;2.88;;
4078;SDS011;2054;47.858;11.156;2022-11-20T04:29:28;2.85;;;2.55;;
4078;SDS011;2054;47.858;11.156;2022-11-20T04:31:55;4.07;;;3.05;;
4078;SDS011;2054;47.858;11.156;2022-11-20T04:34:22;4.68;;;3.58;;
4078;SDS011;2054;47.858;11.156;2022-11-20T04:36:49;5.43;;;3.10;;
4078;SDS011;2054;47.858;11.156;2022-11-20T04:39:18;4.28;;;3.30;;
4078;SDS011;2054;47.858;11.156;2022-11-20T04:41:45;4.75;;;3.25;;
4078;SDS011;2054;47.858;11.156;2022-11-20T04:44:12;5.53;;;2.90;;
4078;SDS011;2054;47.858;11.156;2022-11-20T04:46:41;4.45;;;2.90;;
4078;SDS011;2054;47.858;11.156;2022-11-20T04:49:08;4.70;;;3.35;;
4078;SDS011;2054;47.858;11.156;2022-11-20T04:51:35;5.03;;;3.28;;
4078;SDS011;2054;47.858;11.156;2022-11-20T04:54:02;4.30;;;3.25;;
4078;SDS011;2054;47.858;11.156;2022-11-20T04:56:31;5.13;;;3.50;;
4078;SDS011;2054;47.858;11.156;2022-11-20T04:58:59;4.55;;;3.28;;
4078;SDS011;2054;47.858;11.156;2022-11-20T05:01:27;7.53;;;3.45;;
4078;SDS011;2054;47.858;11.156;2022-11-20T05:03:54;6.00;;;3.65;;
4078;SDS011;2054;47.858;11.156;2022-11-20T05:06:21;5.00;;;3.60;;
4078;SDS011;2054;47.858;11.156;2022-11-20T05:08:49;6.32;;;3.17;;
4078;SDS011;2054;47.858;11.156;2022-11-20T05:11:17;3.83;;;3.20;;
4078;SDS011;2054;47.858;11.156;2022-11-20T05:13:46;4.20;;;3.28;;
4078;SDS011;2054;47.858;11.156;2022-11-20T05:16:14;5.65;;;3.30;;
4078;SDS011;2054;47.858;11.156;2022-11-20T05:18:42;5.55;;;3.55;;
4078;SDS011;2054;47.858;11.156;2022-11-20T05:21:09;8.10;;;3.65;;
4078;SDS011;2054;47.858;11.156;2022-11-20T05:23:37;5.15;;;3.83;;
4078;SDS011;2054;47.858;11.156;2022-11-20T05:26:05;5.32;;;3.83;;
4078;SDS011;2054;47.858;11.156;2022-11-20T05:28:32;5.22;;;3.10;;
4078;SDS011;2054;47.858;11.156;2022-11-20T05:31:08;5.50;;;3.28;;
4078;SDS011;2054;47.858;11.156;2022-11-20T05:33:35;6.50;;;3.75;;
4078;SDS011;2054;47.858;11.156;2022-11-20T05:36:03;3.53;;;2.70;;
4078;SDS011;2054;47.858;11.156;2022-11-20T05:38:30;4.60;;;3.15;;
4078;SDS011;2054;47.858;11.156;2022-11-20T05:41:02;3.95;;;3.28;;
4078;SDS011;2054;47.858;11.156;2022-11-20T05:43:31;5.22;;;3.10;;
4078;SDS011;2054;47.858;11.156;2022-11-20T05:45:58;5.15;;;3.55;;
4078;SDS011;2054;47.858;11.156;2022-11-20T05:48:27;5.07;;;3.30;;
4078;SDS011;2054;47.858;11.156;2022-11-20T05:50:55;6.47;;;3.67;;
4078;SDS011;2054;47.858;11.156;2022-11-20T05:53:23;4.97;;;3.60;;
4078;SDS011;2054;47.858;11.156;2022-11-20T05:55:56;6.75;;;3.80;;
4078;SDS011;2054;47.858;11.156;2022-11-20T05:58:23;5.43;;;3.17;;
4078;SDS011;2054;47.858;11.156;2022-11-20T06:00:50;4.38;;;2.90;;
4078;SDS011;2054;47.858;11.156;2022-11-20T06:03:17;6.03;;;3.92;;
4078;SDS011;2054;47.858;11.156;2022-11-20T06:05:46;8.40;;;3.45;;
4078;SDS011;2054;47.858;11.156;2022-11-20T06:08:13;4.20;;;3.17;;
4078;SDS011;2054;47.858;11.156;2022-11-20T06:10:40;4.22;;;3.38;;
4078;SDS011;2054;47.858;11.156;2022-11-20T06:13:07;5.25;;;3.42;;
4078;SDS011;2054;47.858;11.156;2022-11-20T06:15:34;4.47;;;3.25;;
4078;SDS011;2054;47.858;11.156;2022-11-20T06:18:02;6.50;;;3.45;;
4078;SDS011;2054;47.858;11.156;2022-11-20T06:20:29;4.57;;;3.42;;
4078;SDS011;2054;47.858;11.156;2022-11-20T06:22:57;6.35;;;3.72;;
4078;SDS011;2054;47.858;11.156;2022-11-20T06:25:24;4.38;;;3.47;;
4078;SDS011;2054;47.858;11.156;2022-11-20T06:27:52;4.70;;;3.50;;
4078;SDS011;2054;47.858;11.156;2022-11-20T06:30:22;6.65;;;3.80;;
4078;SDS011;2054;47.858;11.156;2022-11-20T06:32:49;3.72;;;3.00;;
4078;SDS011;2054;47.858;11.156;2022-11-20T06:35:16;6.93;;;3.70;;
4078;SDS011;2054;47.858;11.156;2022-11-20T06:37:43;5.95;;;3.47;;
4078;SDS011;2054;47.858;11.156;2022-11-20T06:40:12;5.57;;;3.72;;
4078;SDS011;2054;47.858;11.156;2022-11-20T06:42:39;7.53;;;3.30;;
4078;SDS011;2054;47.858;11.156;2022-11-20T06:45:07;5.90;;;3.55;;
4078;SDS011;2054;47.858;11.156;2022-11-20T06:47:35;4.85;;;3.25;;
4078;SDS011;2054;47.858;11.156;2022-11-20T06:50:02;6.18;;;3.80;;
4078;SDS011;2054;47.858;11.156;2022-11-20T06:52:29;5.85;;;2.90;;
4078;SDS011;2054;47.858;11.156;2022-11-20T06:54:56;4.90;;;3.22;;
4078;SDS011;2054;47.858;11.156;2022-11-20T06:57:25;6.43;;;3.10;;
4078;SDS011;2054;47.858;11.156;2022-11-20T06:59:52;4.65;;;3.08;;
4078;SDS011;2054;47.858;11.156;2022-11-20T07:02:19;4.40;;;2.72;;
4078;SDS011;2054;47.858;11.156;2022-11-20T07:04:46;4.15;;;2.97;;
4078;SDS011;2054;47.858;11.156;2022-11-20T07:07:13;3.72;;;2.80;;
4078;SDS011;2054;47.858;11.156;2022-11-20T07:09:41;8.35;;;2.80;;
4078;SDS011;2054;47.858;11.156;2022-11-20T07:12:08;3.67;;;2.65;;
4078;SDS011;2054;47.858;11.156;2022-11-20T07:14:36;3.45;;;2.47;;
4078;SDS011;2054;47.858;11.156;2022-11-20T07:17:04;4.32;;;2.55;;
4078;SDS011;2054;47.858;11.156;2022-11-20T07:19:31;4.32;;;2.90;;
4078;SDS011;2054;47.858;11.156;2022-11-20T07:21:59;3.90;;;2.50;;
4078;SDS011;2054;47.858;11.156;2022-11-20T07:24:26;4.97;;;3.00;;
4078;SDS011;2054;47.858;11.156;2022-11-20T07:26:53;4.82;;;2.97;;
4078;SDS011;2054;47.858;11.156;2022-11-20T07:29:20;4.13;;;3.22;;
4078;SDS011;2054;47.858;11.156;2022-11-20T07:31:49;4.88;;;3.10;;
4078;SDS011;2054;47.858;11.156;2022-11-20T07:34:16;3.28;;;2.35;;
4078;SDS011;2054;47.858;11.156;2022-11-20T07:36:45;2.85;;;2.38;;
4078;SDS011;2054;47.858;11.156;2022-11-20T07:39:12;3.95;;;2.70;;
4078;SDS011;2054;47.858;11.156;2022-11-20T07:41:39;5.20;;;3.05;;
4078;SDS011;2054;47.858;11.156;2022-11-20T07:44:06;3.92;;;2.60;;
4078;SDS011;2054;47.858;11.156;2022-11-20T07:46:33;4.00;;;2.40;;
4078;SDS011;2054;47.858;11.156;2022-11-20T07:49:02;3.55;;;2.45;;
4078;SDS011;2054;47.858;11.156;2022-11-20T07:51:30;3.97;;;2.22;;
4078;SDS011;2054;47.858;11.156;2022-11-20T07:53:57;5.07;;;2.67;;
4078;SDS011;2054;47.858;11.156;2022-11-20T07:56:24;4.32;;;2.50;;
4078;SDS011;2054;47.858;11.156;2022-11-20T07:58:52;5.70;;;2.30;;
4078;SDS011;2054;47.858;11.156;2022-11-20T08:01:19;3.85;;;1.88;;
4078;SDS011;2054;47.858;11.156;2022-11-20T08:03:47;3.83;;;2.40;;
4078;SDS011;2054;47.858;11.156;2022-11-20T08:06:15;3.78;;;2.08;;
4078;SDS011;2054;47.858;11.156;2022-11-20T08:08:43;2.80;;;1.92;;
4078;SDS011;2054;47.858;11.156;2022-11-20T08:11:10;2.42;;;1.65;;
4078;SDS011;2054;47.858;11.156;2022-11-20T08:14:04;3.13;;;2.00;;
4078;SDS011;2054;47.858;11.156;2022-11-20T08:16:41;4.05;;;2.10;;
4078;SDS011;2054;47.858;11.156;2022-11-20T08:19:09;4.45;;;1.80;;
4078;SDS011;2054;47.858;11.156;2022-11-20T08:21:38;2.40;;;2.10;;
4078;SDS011;2054;47.858;11.156;2022-11-20T08:24:05;1.90;;;1.45;;
4078;SDS011;2054;47.858;11.156;2022-11-20T08:26:33;2.08;;;1.70;;
4078;SDS011;2054;47.858;11.156;2022-11-20T08:29:00;1.50;;;1.40;;
4078;SDS011;2054;47.858;11.156;2022-11-20T08:31:27;2.13;;;1.77;;
4078;SDS011;2054;47.858;11.156;2022-11-20T08:33:54;3.35;;;1.75;;
4078;SDS011;2054;47.858;11.156;2022-11-20T08:36:22;1.50;;;1.40;;
4078;SDS011;2054;47.858;11.156;2022-11-20T08:38:52;1.52;;;1.42;;
4078;SDS011;2054;47.858;11.156;2022-11-20T08:41:19;2.00;;;1.60;;
4078;SDS011;2054;47.858;11.156;2022-11-20T08:43:51;2.33;;;1.45;;
4078;SDS011;2054;47.858;11.156;2022-11-20T08:46:18;7.22;;;1.77;;
4078;SDS011;2054;47.858;11.156;2022-11-20T08:48:46;1.42;;;1.33;;
4078;SDS011;2054;47.858;11.156;2022-11-20T08:51:13;3.53;;;1.80;;
4078;SDS011;2054;47.858;11.156;2022-11-20T08:53:41;4.25;;;1.40;;
4078;SDS011;2054;47.858;11.156;2022-11-20T08:56:09;1.40;;;1.30;;
4078;SDS011;2054;47.858;11.156;2022-11-20T08:58:37;1.63;;;1.40;;
4078;SDS011;2054;47.858;11.156;2022-11-20T09:01:04;2.78;;;1.45;;
4078;SDS011;2054;47.858;11.156;2022-11-20T09:03:32;1.60;;;1.42;;
4078;SDS011;2054;47.858;11.156;2022-11-20T09:05:59;2.50;;;1.50;;
4078;SDS011;2054;47.858;11.156;2022-11-20T09:08:27;1.75;;;1.40;;
4078;SDS011;2054;47.858;11.156;2022-11-20T09:10:55;3.65;;;1.30;;
4078;SDS011;2054;47.858;11.156;2022-11-20T09:13:24;1.30;;;1.20;;
4078;SDS011;2054;47.858;11.156;2022-11-20T09:15:52;2.15;;;1.45;;
4078;SDS011;2054;47.858;11.156;2022-11-20T09:18:21;1.48;;;1.38;;
4078;SDS011;2054;47.858;11.156;2022-11-20T09:20:48;3.22;;;1.63;;
4078;SDS011;2054;47.858;11.156;2022-11-20T09:23:16;2.33;;;1.50;;
4078;SDS011;2054;47.858;11.156;2022-11-20T09:25:43;3.28;;;1.33;;
4078;SDS011;2054;47.858;11.156;2022-11-20T09:28:10;1.88;;;1.52;;
4078;SDS011;2054;47.858;11.156;2022-11-20T09:30:39;2.92;;;1.30;;
4078;SDS011;2054;47.858;11.156;2022-11-20T09:33:07;2.80;;;1.75;;
4078;SDS011;2054;47.858;11.156;2022-11-20T09:35:34;2.92;;;1.80;;
4078;SDS011;2054;47.858;11.156;2022-11-20T09:38:05;2.55;;;1.90;;
4078;SDS011;2054;47.858;11.156;2022-11-20T09:40:32;2.15;;;1.58;;
4078;SDS011;2054;47.858;11.156;2022-11-20T09:43:02;1.75;;;1.13;;
4078;SDS011;2054;47.858;11.156;2022-11-20T09:48:20;2.25;;;1.27;;
4078;SDS011;2054;47.858;11.156;2022-11-20T09:50:52;1.13;;;1.02;;
4078;SDS011;2054;47.858;11.156;2022-11-20T09:53:25;1.25;;;1.15;;
4078;SDS011;2054;47.858;11.156;2022-11-20T09:55:55;2.15;;;1.30;;
4078;SDS011;2054;47.858;11.156;2022-11-20T09:58:25;1.58;;;1.38;;
4078;SDS011;2054;47.858;11.156;2022-11-20T10:00:54;1.13;;;1.13;;
4078;SDS011;2054;47.858;11.156;2022-11-20T10:03:26;1.92;;;1.27;;
4078;SDS011;2054;47.858;11.156;2022-11-20T10:05:57;3.78;;;1.42;;
4078;SDS011;2054;47.858;11.156;2022-11-20T10:08:28;1.15;;;0.98;;
4078;SDS011;2054;47.858;11.156;2022-11-20T10:10:58;2.38;;;1.35;;
4078;SDS011;2054;47.858;11.156;2022-11-20T10:13:34;2.03;;;1.27;;
4078;SDS011;2054;47.858;11.156;2022-11-20T10:16:10;1.42;;;1.10;;
4078;SDS011;2054;47.858;11.156;2022-11-20T10:18:44;1.48;;;0.98;;
4078;SDS011;2054;47.858;11.156;2022-11-20T10:21:16;3.08;;;1.60;;
4078;SDS011;2054;47.858;11.156;2022-11-20T10:23:52;2.22;;;1.10;;
4078;SDS011;2054;47.858;11.156;2022-11-20T10:26:25;1.08;;;0.98;;
4078;SDS011;2054;47.858;11.156;2022-11-20T10:29:01;1.35;;;1.10;;
4078;SDS011;2054;47.858;11.156;2022-11-20T10:31:34;2.08;;;1.25;;
4078;SDS011;2054;47.858;11.156;2022-11-20T10:34:05;1.38;;;1.00;;
4078;SDS011;2054;47.858;11.156;2022-11-20T10:36:33;2.42;;;1.30;;
4078;SDS011;2054;47.858;11.156;2022-11-20T10:39:03;1.38;;;1.10;;
4078;SDS011;2054;47.858;11.156;2022-11-20T10:41:32;1.42;;;1.10;;
4078;SDS011;2054;47.858;11.156;2022-11-20T10:44:03;1.83;;;1.20;;
4078;SDS011;2054;47.858;11.156;2022-11-20T10:46:34;1.25;;;0.77;;
4078;SDS011;2054;47.858;11.156;2022-11-20T10:49:09;2.33;;;0.90;;
4078;SDS011;2054;47.858;11.156;2022-11-20T10:51:37;1.73;;;1.30;;
4078;SDS011;2054;47.858;11.156;2022-11-20T10:54:11;1.73;;;0.82;;
4078;SDS011;2054;47.858;11.156;2022-11-20T10:56:40;1.50;;;1.02;;
4078;SDS011;2054;47.858;11.156;2022-11-20T10:59:27;1.60;;;1.20;;
4078;SDS011;2054;47.858;11.156;2022-11-20T11:01:57;1.15;;;0.80;;
4078;SDS011;2054;47.858;11.156;2022-11-20T11:04:32;1.10;;;1.00;;
4078;SDS011;2054;47.858;11.156;2022-11-20T11:07:04;2.65;;;0.90;;
4078;SDS011;2054;47.858;11.156;2022-11-20T11:09:34;1.13;;;0.80;;
4078;SDS011;2054;47.858;11.156;2022-11-20T11:12:05;1.35;;;1.10;;
4078;SDS011;2054;47.858;11.156;2022-11-20T11:14:41;0.80;;;0.80;;
4078;SDS011;2054;47.858;11.156;2022-11-20T11:17:17;0.75;;;0.75;;
4078;SDS011;2054;47.858;11.156;2022-11-20T11:19:46;0.82;;;0.80;;
4078;SDS011;2054;47.858;11.156;2022-11-20T11:22:23;1.13;;;0.98;;
4078;SDS011;2054;47.858;11.156;2022-11-20T11:24:51;1.20;;;0.95;;
4078;SDS011;2054;47.858;11.156;2022-11-20T11:27:18;1.70;;;1.15;;
4078;SDS011;2054;47.858;11.156;2022-11-20T11:29:46;1.55;;;1.10;;
4078;SDS011;2054;47.858;11.156;2022-11-20T11:32:14;0.90;;;0.90;;
4078;SDS011;2054;47.858;11.156;2022-11-20T11:34:42;1.08;;;0.98;;
4078;SDS011;2054;47.858;11.156;2022-11-20T11:37:13;1.80;;;1.20;;
4078;SDS011;2054;47.858;11.156;2022-11-20T11:39:42;2.40;;;1.17;;
4078;SDS011;2054;47.858;11.156;2022-11-20T11:42:11;3.58;;;1.40;;
4078;SDS011;2054;47.858;11.156;2022-11-20T11:44:43;1.27;;;1.17;;
4078;SDS011;2054;47.858;11.156;2022-11-20T11:47:29;0.68;;;0.68;;
4078;SDS011;2054;47.858;11.156;2022-11-20T11:50:00;1.15;;;0.57;;
4078;SDS011;2054;47.858;11.156;2022-11-20T11:52:29;1.15;;;0.95;;
4078;SDS011;2054;47.858;11.156;2022-11-20T11:54:59;4.03;;;2.30;;
4078;SDS011;2054;47.858;11.156;2022-11-20T11:57:32;1.90;;;1.50;;
4078;SDS011;2054;47.858;11.156;2022-11-20T12:00:03;0.82;;;0.82;;
4078;SDS011;2054;47.858;11.156;2022-11-20T12:02:35;0.85;;;0.80;;
4078;SDS011;2054;47.858;11.156;2022-11-20T12:05:08;0.85;;;0.70;;
4078;SDS011;2054;47.858;11.156;2022-11-20T12:07:42;0.93;;;0.70;;
4078;SDS011;2054;47.858;11.156;2022-11-20T12:10:13;0.80;;;0.80;;
4078;SDS011;2054;47.858;11.156;2022-11-20T12:12:42;1.58;;;1.10;;
4078;SDS011;2054;47.858;11.156;2022-11-20T12:15:13;0.90;;;0.90;;
4078;SDS011;2054;47.858;11.156;2022-11-20T12:17:42;0.95;;;0.70;;
4078;SDS011;2054;47.858;11.156;2022-11-20T12:20:12;0.75;;;0.75;;
4078;SDS011;2054;47.858;11.156;2022-11-20T12:22:51;0.90;;;0.70;;
4078;SDS011;2054;47.858;11.156;2022-11-20T12:25:20;1.33;;;0.80;;
4078;SDS011;2054;47.858;11.156;2022-11-20T12:30:36;0.90;;;0.80;;
4078;SDS011;2054;47.858;11.156;2022-11-20T12:35:53;0.93;;;0.75;;
4078;SDS011;2054;47.858;11.156;2022-11-20T12:38:32;0.88;;;0.73;;
4078;SDS011;2054;47.858;11.156;2022-11-20T12:41:04;1.30;;;0.82;;
4078;SDS011;2054;47.858;11.156;2022-11-20T12:43:33;0.70;;;0.70;;
4078;SDS011;2054;47.858;11.156;2022-11-20T12:46:31;3.35;;;1.23;;
4078;SDS011;2054;47.858;11.156;2022-11-20T12:49:09;1.10;;;0.70;;
4078;SDS011;2054;47.858;11.156;2022-11-20T12:54:32;1.58;;;0.90;;
4078;SDS011;2054;47.858;11.156;2022-11-20T12:57:06;1.75;;;1.17;;
4078;SDS011;2054;47.858;11.156;2022-11-20T12:59:43;1.20;;;1.08;;
4078;SDS011;2054;47.858;11.156;2022-11-20T13:02:18;4.75;;;2.28;;
4078;SDS011;2054;47.858;11.156;2022-11-20T13:04:58;0.80;;;0.80;;
4078;SDS011;2054;47.858;11.156;2022-11-20T13:07:26;2.20;;;1.00;;
4078;SDS011;2054;47.858;11.156;2022-11-20T13:09:56;0.95;;;0.90;;
4078;SDS011;2054;47.858;11.156;2022-11-20T13:12:27;3.42;;;1.65;;
4078;SDS011;2054;47.858;11.156;2022-11-20T13:14:58;1.35;;;1.05;;
4078;SDS011;2054;47.858;11.156;2022-11-20T13:17:30;1.85;;;0.82;;
4078;SDS011;2054;47.858;11.156;2022-11-20T13:20:00;1.52;;;1.25;;
4078;SDS011;2054;47.858;11.156;2022-11-20T13:22:44;2.17;;;1.20;;
4078;SDS011;2054;47.858;11.156;2022-11-20T13:25:23;1.75;;;0.80;;
4078;SDS011;2054;47.858;11.156;2022-11-20T13:27:50;2.17;;;1.00;;
4078;SDS011;2054;47.858;11.156;2022-11-20T13:30:19;1.95;;;0.98;;
4078;SDS011;2054;47.858;11.156;2022-11-20T13:32:50;0.98;;;0.75;;
4078;SDS011;2054;47.858;11.156;2022-11-20T13:35:26;1.27;;;1.17;;
4078;SDS011;2054;47.858;11.156;2022-11-20T13:38:04;1.85;;;1.00;;
4078;SDS011;2054;47.858;11.156;2022-11-20T13:40:33;1.67;;;1.08;;
4078;SDS011;2054;47.858;11.156;2022-11-20T13:43:17;0.90;;;0.85;;
4078;SDS011;2054;47.858;11.156;2022-11-20T13:45:53;1.88;;;0.85;;
4078;SDS011;2054;47.858;11.156;2022-11-20T13:48:21;0.88;;;0.82;;
4078;SDS011;2054;47.858;11.156;2022-11-20T13:51:04;1.30;;;0.88;;
4078;SDS011;2054;47.858;11.156;2022-11-20T13:56:22;0.93;;;0.90;;
4078;SDS011;2054;47.858;11.156;2022-11-20T13:58:53;0.90;;;0.90;;
4078;SDS011;2054;47.858;11.156;2022-11-20T14:01:24;1.30;;;1.20;;
4078;SDS011;2054;47.858;11.156;2022-11-20T14:03:53;1.10;;;1.00;;
4078;SDS011;2054;47.858;11.156;2022-11-20T14:06:26;1.08;;;0.90;;
4078;SDS011;2054;47.858;11.156;2022-11-20T14:08:54;1.60;;;1.40;;
4078;SDS011;2054;47.858;11.156;2022-11-20T14:11:24;1.98;;;1.10;;
4078;SDS011;2054;47.858;11.156;2022-11-20T14:13:58;2.35;;;1.50;;
4078;SDS011;2054;47.858;11.156;2022-11-20T14:16:27;3.17;;;1.30;;
4078;SDS011;2054;47.858;11.156;2022-11-20T14:18:55;1.42;;;0.95;;
4078;SDS011;2054;47.858;11.156;2022-11-20T14:21:24;4.20;;;1.77;;
4078;SDS011;2054;47.858;11.156;2022-11-20T14:23:53;4.30;;;2.00;;
4078;SDS011;2054;47.858;11.156;2022-11-20T14:26:25;1.27;;;0.60;;
4078;SDS011;2054;47.858;11.156;2022-11-20T14:29:04;0.75;;;0.65;;
4078;SDS011;2054;47.858;11.156;2022-11-20T14:31:31;1.80;;;1.30;;
4078;SDS011;2054;47.858;11.156;2022-11-20T14:33:59;2.72;;;1.70;;
4078;SDS011;2054;47.858;11.156;2022-11-20T14:36:29;3.00;;;1.65;;
4078;SDS011;2054;47.858;11.156;2022-11-20T14:38:56;2.53;;;1.40;;
4078;SDS011;2054;47.858;11.156;2022-11-20T14:41:26;2.22;;;0.90;;
4078;SDS011;2054;47.858;11.156;2022-11-20T14:43:57;0.93;;;0.85;;
4078;SDS011;2054;47.858;11.156;2022-11-20T14:46:27;2.22;;;1.15;;
4078;SDS011;2054;47.858;11.156;2022-11-20T14:48:55;5.57;;;2.55;;
4078;SDS011;2054;47.858;11.156;2022-11-20T14:51:28;1.58;;;1.40;;
4078;SDS011;2054;47.858;11.156;2022-11-20T14:53:56;1.20;;;1.10;;
4078;SDS011;2054;47.858;11.156;2022-11-20T14:56:36;1.02;;;1.02;;
4078;SDS011;2054;47.858;11.156;2022-11-20T14:59:03;1.00;;;0.98;;
4078;SDS011;2054;47.858;11.156;2022-11-20T15:01:31;1.25;;;1.13;;
4078;SDS011;2054;47.858;11.156;2022-11-20T15:04:04;2.05;;;1.55;;
4078;SDS011;2054;47.858;11.156;2022-11-20T15:06:32;2.28;;;1.48;;
4078;SDS011;2054;47.858;11.156;2022-11-20T15:08:59;1.33;;;1.20;;
4078;SDS011;2054;47.858;11.156;2022-11-20T15:11:28;1.70;;;1.15;;
4078;SDS011;2054;47.858;11.156;2022-11-20T15:13:57;2.28;;;1.20;;
4078;SDS011;2054;47.858;11.156;2022-11-20T15:16:25;1.45;;;1.20;;
4078;SDS011;2054;47.858;11.156;2022-11-20T15:18:53;2.58;;;1.20;;
4078;SDS011;2054;47.858;11.156;2022-11-20T15:21:20;1.73;;;1.10;;
4078;SDS011;2054;47.858;11.156;2022-11-20T15:23:48;2.22;;;1.27;;
4078;SDS011;2054;47.858;11.156;2022-11-20T15:26:17;2.67;;;1.30;;
4078;SDS011;2054;47.858;11.156;2022-11-20T15:28:47;1.40;;;1.30;;
4078;SDS011;2054;47.858;11.156;2022-11-20T15:31:17;1.17;;;1.08;;
4078;SDS011;2054;47.858;11.156;2022-11-20T15:33:45;1.77;;;1.30;;
4078;SDS011;2054;47.858;11.156;2022-11-20T15:36:13;2.00;;;1.67;;
4078;SDS011;2054;47.858;11.156;2022-11-20T15:38:54;1.40;;;1.27;;
4078;SDS011;2054;47.858;11.156;2022-11-20T15:41:22;1.50;;;1.27;;
4078;SDS011;2054;47.858;11.156;2022-11-20T15:43:50;1.20;;;1.10;;
4078;SDS011;2054;47.858;11.156;2022-11-20T15:46:19;3.70;;;1.30;;
4078;SDS011;2054;47.858;11.156;2022-11-20T15:48:51;1.75;;;1.10;;
4078;SDS011;2054;47.858;11.156;2022-11-20T15:51:21;1.15;;;1.08;;
4078;SDS011;2054;47.858;11.156;2022-11-20T15:53:50;1.65;;;1.38;;
4078;SDS011;2054;47.858;11.156;2022-11-20T15:56:17;1.13;;;1.02;;
4078;SDS011;2054;47.858;11.156;2022-11-20T15:58:44;1.52;;;1.25;;
4078;SDS011;2054;47.858;11.156;2022-11-20T16:01:14;1.42;;;1.00;;
4078;SDS011;2054;47.858;11.156;2022-11-20T16:03:43;3.10;;;1.17;;
4078;SDS011;2054;47.858;11.156;2022-11-20T16:06:10;6.57;;;1.50;;
4078;SDS011;2054;47.858;11.156;2022-11-20T16:08:38;1.38;;;1.05;;
4078;SDS011;2054;47.858;11.156;2022-11-20T16:11:05;2.15;;;1.23;;
4078;SDS011;2054;47.858;11.156;2022-11-20T16:13:34;1.55;;;1.33;;
4078;SDS011;2054;47.858;11.156;2022-11-20T16:16:19;1.55;;;1.40;;
4078;SDS011;2054;47.858;11.156;2022-11-20T16:18:48;2.75;;;1.50;;
4078;SDS011;2054;47.858;11.156;2022-11-20T16:21:16;4.13;;;1.60;;
4078;SDS011;2054;47.858;11.156;2022-11-20T16:23:43;2.30;;;1.70;;
4078;SDS011;2054;47.858;11.156;2022-11-20T16:26:10;3.28;;;1.50;;
4078;SDS011;2054;47.858;11.156;2022-11-20T16:28:38;1.90;;;1.35;;
4078;SDS011;2054;47.858;11.156;2022-11-20T16:31:09;1.80;;;1.52;;
4078;SDS011;2054;47.858;11.156;2022-11-20T16:33:36;2.15;;;1.30;;
4078;SDS011;2054;47.858;11.156;2022-11-20T16:36:09;1.63;;;1.40;;
4078;SDS011;2054;47.858;11.156;2022-11-20T16:38:36;2.08;;;1.33;;
4078;SDS011;2054;47.858;11.156;2022-11-20T16:41:04;2.28;;;1.63;;
4078;SDS011;2054;47.858;11.156;2022-11-20T16:43:38;2.45;;;1.52;;
4078;SDS011;2054;47.858;11.156;2022-11-20T16:46:10;3.22;;;1.55;;
4078;SDS011;2054;47.858;11.156;2022-11-20T16:48:37;4.18;;;2.05;;
4078;SDS011;2054;47.858;11.156;2022-11-20T16:51:06;6.32;;;3.78;;
4078;SDS011;2054;47.858;11.156;2022-11-20T16:53:35;6.90;;;3.58;;
4078;SDS011;2054;47.858;11.156;2022-11-20T16:56:09;4.43;;;2.90;;
4078;SDS011;2054;47.858;11.156;2022-11-20T16:58:37;4.22;;;2.67;;
4078;SDS011;2054;47.858;11.156;2022-11-20T17:01:05;4.93;;;2.93;;
4078;SDS011;2054;47.858;11.156;2022-11-20T17:03:34;4.82;;;3.70;;
4078;SDS011;2054;47.858;11.156;2022-11-20T17:06:01;3.78;;;2.83;;
4078;SDS011;2054;47.858;11.156;2022-11-20T17:08:29;3.85;;;2.67;;
4078;SDS011;2054;47.858;11.156;2022-11-20T17:10:58;2.80;;;2.50;;
4078;SDS011;2054;47.858;11.156;2022-11-20T17:13:30;6.70;;;2.80;;
4078;SDS011;2054;47.858;11.156;2022-11-20T17:15:59;2.72;;;2.33;;
4078;SDS011;2054;47.858;11.156;2022-11-20T17:18:27;2.75;;;2.17;;
4078;SDS011;2054;47.858;11.156;2022-11-20T17:20:54;4.97;;;3.47;;
4078;SDS011;2054;47.858;11.156;2022-11-20T17:23:21;10.45;;;6.28;;
4078;SDS011;2054;47.858;11.156;2022-11-20T17:25:48;4.50;;;3.13;;
4078;SDS011;2054;47.858;11.156;2022-11-20T17:28:17;4.22;;;3.03;;
4078;SDS011;2054;47.858;11.156;2022-11-20T17:30:44;7.05;;;5.18;;
4078;SDS011;2054;47.858;11.156;2022-11-20T17:33:11;11.98;;;5.80;;
4078;SDS011;2054;47.858;11.156;2022-11-20T17:35:39;30.38;;;12.27;;
4078;SDS011;2054;47.858;11.156;2022-11-20T17:38:06;26.20;;;11.65;;
4078;SDS011;2054;47.858;11.156;2022-11-20T17:40:33;32.83;;;14.32;;
4078;SDS011;2054;47.858;11.156;2022-11-20T17:43:00;28.85;;;13.02;;
4078;SDS011;2054;47.858;11.156;2022-11-20T17:45:29;17.45;;;9.63;;
4078;SDS011;2054;47.858;11.156;2022-11-20T17:47:56;13.95;;;7.30;;
4078;SDS011;2054;47.858;11.156;2022-11-20T17:50:23;9.45;;;5.20;;
4078;SDS011;2054;47.858;11.156;2022-11-20T17:52:50;8.15;;;4.28;;
4078;SDS011;2054;47.858;11.156;2022-11-20T17:55:18;9.10;;;4.10;;
4078;SDS011;2054;47.858;11.156;2022-11-20T17:57:45;8.65;;;4.25;;
4078;SDS011;2054;47.858;11.156;2022-11-20T18:00:17;5.47;;;3.67;;
4078;SDS011;2054;47.858;11.156;2022-11-20T18:02:46;7.28;;;3.97;;
4078;SDS011;2054;47.858;11.156;2022-11-20T18:05:13;5.72;;;3.10;;
4078;SDS011;2054;47.858;11.156;2022-11-20T18:07:41;5.32;;;3.10;;
4078;SDS011;2054;47.858;11.156;2022-11-20T18:10:08;5.88;;;2.90;;
4078;SDS011;2054;47.858;11.156;2022-11-20T18:12:35;4.47;;;2.00;;
4078;SDS011;2054;47.858;11.156;2022-11-20T18:15:03;2.28;;;2.00;;
4078;SDS011;2054;47.858;11.156;2022-11-20T18:17:30;4.07;;;1.85;;
4078;SDS011;2054;47.858;11.156;2022-11-20T18:19:58;4.82;;;3.13;;
4078;SDS011;2054;47.858;11.156;2022-11-20T18:22:26;4.43;;;2.72;;
4078;SDS011;2054;47.858;11.156;2022-11-20T18:24:53;7.35;;;2.72;;
4078;SDS011;2054;47.858;11.156;2022-11-20T18:27:20;8.20;;;2.90;;
4078;SDS011;2054;47.858;11.156;2022-11-20T18:29:48;5.68;;;2.70;;
4078;SDS011;2054;47.858;11.156;2022-11-20T18:32:16;2.72;;;2.10;;
4078;SDS011;2054;47.858;11.156;2022-11-20T18:34:43;4.38;;;2.65;;
4078;SDS011;2054;47.858;11.156;2022-11-20T18:37:11;4.20;;;1.95;;
4078;SDS011;2054;47.858;11.156;2022-11-20T18:39:40;3.47;;;2.08;;
4078;SDS011;2054;47.858;11.156;2022-11-20T18:42:09;2.13;;;1.50;;
4078;SDS011;2054;47.858;11.156;2022-11-20T18:44:54;3.17;;;2.00;;
4078;SDS011;2054;47.858;11.156;2022-11-20T18:47:24;2.50;;;1.80;;
4078;SDS011;2054;47.858;11.156;2022-11-20T18:49:53;5.03;;;2.05;;
4078;SDS011;2054;47.858;11.156;2022-11-20T18:52:23;5.38;;;2.40;;
4078;SDS011;2054;47.858;11.156;2022-11-20T18:54:51;3.58;;;2.58;;
4078;SDS011;2054;47.858;11.156;2022-11-20T18:57:19;5.65;;;3.30;;
4078;SDS011;2054;47.858;11.156;2022-11-20T18:59:46;3.78;;;2.60;;
4078;SDS011;2054;47.858;11.156;2022-11-20T19:02:14;5.07;;;2.95;;
4078;SDS011;2054;47.858;11.156;2022-11-20T19:04:41;4.20;;;2.65;;
4078;SDS011;2054;47.858;11.156;2022-11-20T19:07:08;5.68;;;2.45;;
4078;SDS011;2054;47.858;11.156;2022-11-20T19:09:38;5.22;;;2.92;;
4078;SDS011;2054;47.858;11.156;2022-11-20T19:12:05;3.83;;;2.72;;
4078;SDS011;2054;47.858;11.156;2022-11-20T19:14:33;3.25;;;2.60;;